sensor_id;sensor_type;location;lat;lon;timestamp;pressure;altitude;pressure_sealevel;temperature
17716;BMP280;50159;49.426;11.182;2023-01-26T00:01:26;98279.66;;;1.15
17716;BMP280;50159;49.426;11.182;2023-01-26T00:03:55;98279.78;;;1.11
17716;BMP280;50159;49.426;11.182;2023-01-26T00:06:24;98275.66;;;1.07
17716;BMP280;50159;49.426;11.182;2023-01-26T00:08:54;98275.72;;;1.05
17716;BMP280;50159;49.426;11.182;2023-01-26T00:11:26;98268.13;;;1.02
17716;BMP280;50159;49.426;11.182;2023-01-26T00:13:56;98264.78;;;1.00
17716;BMP280;50159;49.426;11.182;2023-01-26T00:16:23;98262.25;;;0.99
17716;BMP280;50159;49.426;11.182;2023-01-26T00:18:50;98247.81;;;0.96
17716;BMP280;50159;49.426;11.182;2023-01-26T00:21:20;98245.31;;;0.95
17716;BMP280;50159;49.426;11.182;2023-01-26T00:23:48;98242.75;;;0.95
17716;BMP280;50159;49.426;11.182;2023-01-26T00:26:19;98244.47;;;0.94
17716;BMP280;50159;49.426;11.182;2023-01-26T00:28:46;98235.06;;;0.95
17716;BMP280;50159;49.426;11.182;2023-01-26T00:31:32;98220.69;;;0.91
17716;BMP280;50159;49.426;11.182;2023-01-26T00:33:59;98208.72;;;0.91
17716;BMP280;50159;49.426;11.182;2023-01-26T00:36:26;98207.84;;;0.92
17716;BMP280;50159;49.426;11.182;2023-01-26T00:38:53;98199.22;;;0.95
17716;BMP280;50159;49.426;11.182;2023-01-26T00:41:20;98193.31;;;0.93
17716;BMP280;50159;49.426;11.182;2023-01-26T00:44:06;98190.69;;;0.94
17716;BMP280;50159;49.426;11.182;2023-01-26T00:46:32;98193.31;;;0.93
17716;BMP280;50159;49.426;11.182;2023-01-26T00:48:59;98195.00;;;0.94
17716;BMP280;50159;49.426;11.182;2023-01-26T00:51:26;98189.69;;;0.98
17716;BMP280;50159;49.426;11.182;2023-01-26T00:53:53;98185.41;;;0.99
17716;BMP280;50159;49.426;11.182;2023-01-26T00:56:20;98188.03;;;0.97
17716;BMP280;50159;49.426;11.182;2023-01-26T00:58:47;98180.41;;;0.96
17716;BMP280;50159;49.426;11.182;2023-01-26T01:01:14;98178.69;;;0.96
17716;BMP280;50159;49.426;11.182;2023-01-26T01:03:41;98176.91;;;0.98
17716;BMP280;50159;49.426;11.182;2023-01-26T01:06:07;98178.72;;;0.95
17716;BMP280;50159;49.426;11.182;2023-01-26T01:08:34;98164.31;;;0.92
17716;BMP280;50159;49.426;11.182;2023-01-26T01:11:04;98168.66;;;0.90
17716;BMP280;50159;49.426;11.182;2023-01-26T01:13:31;98167.94;;;0.86
17716;BMP280;50159;49.426;11.182;2023-01-26T01:15:58;98159.38;;;0.87
17716;BMP280;50159;49.426;11.182;2023-01-26T01:18:25;98159.34;;;0.88
17716;BMP280;50159;49.426;11.182;2023-01-26T01:20:52;98152.59;;;0.86
17716;BMP280;50159;49.426;11.182;2023-01-26T01:23:18;98154.44;;;0.82
17716;BMP280;50159;49.426;11.182;2023-01-26T01:25:45;98153.53;;;0.83
17716;BMP280;50159;49.426;11.182;2023-01-26T01:28:12;98156.88;;;0.85
17716;BMP280;50159;49.426;11.182;2023-01-26T01:30:39;98145.69;;;0.88
17716;BMP280;50159;49.426;11.182;2023-01-26T01:33:06;98148.22;;;0.89
17716;BMP280;50159;49.426;11.182;2023-01-26T01:35:32;98145.59;;;0.90
17716;BMP280;50159;49.426;11.182;2023-01-26T01:38:01;98151.56;;;0.91
17716;BMP280;50159;49.426;11.182;2023-01-26T01:40:28;98152.47;;;0.90
17716;BMP280;50159;49.426;11.182;2023-01-26T01:42:55;98149.13;;;0.88
17716;BMP280;50159;49.426;11.182;2023-01-26T01:47:58;98139.06;;;0.82
17716;BMP280;50159;49.426;11.182;2023-01-26T01:50:30;98140.91;;;0.79
17716;BMP280;50159;49.426;11.182;2023-01-26T01:53:00;98139.13;;;0.81
17716;BMP280;50159;49.426;11.182;2023-01-26T01:55:29;98145.13;;;0.80
17716;BMP280;50159;49.426;11.182;2023-01-26T01:58:00;98137.44;;;0.80
17716;BMP280;50159;49.426;11.182;2023-01-26T02:00:28;98137.38;;;0.81
17716;BMP280;50159;49.426;11.182;2023-01-26T02:03:06;98142.34;;;0.86
17716;BMP280;50159;49.426;11.182;2023-01-26T02:05:58;98143.34;;;0.82
17716;BMP280;50159;49.426;11.182;2023-01-26T02:08:32;98141.03;;;0.74
17716;BMP280;50159;49.426;11.182;2023-01-26T02:11:06;98136.72;;;0.76
17716;BMP280;50159;49.426;11.182;2023-01-26T02:13:36;98136.72;;;0.76
17716;BMP280;50159;49.426;11.182;2023-01-26T02:16:04;98131.50;;;0.79
17716;BMP280;50159;49.426;11.182;2023-01-26T02:18:31;98136.50;;;0.82
17716;BMP280;50159;49.426;11.182;2023-01-26T02:21:11;98132.94;;;0.86
17716;BMP280;50159;49.426;11.182;2023-01-26T02:26:19;98129.41;;;0.90
17716;BMP280;50159;49.426;11.182;2023-01-26T02:28:47;98134.53;;;0.90
17716;BMP280;50159;49.426;11.182;2023-01-26T02:31:15;98129.50;;;0.87
17716;BMP280;50159;49.426;11.182;2023-01-26T02:33:43;98126.06;;;0.88
17716;BMP280;50159;49.426;11.182;2023-01-26T02:36:27;98124.38;;;0.87
17716;BMP280;50159;49.426;11.182;2023-01-26T02:42:34;98117.69;;;0.83
17716;BMP280;50159;49.426;11.182;2023-01-26T02:45:05;98116.84;;;0.83
17716;BMP280;50159;49.426;11.182;2023-01-26T02:47:32;98112.63;;;0.82
17716;BMP280;50159;49.426;11.182;2023-01-26T02:49:59;98107.56;;;0.80
17716;BMP280;50159;49.426;11.182;2023-01-26T02:52:29;98111.91;;;0.78
17716;BMP280;50159;49.426;11.182;2023-01-26T02:54:59;98103.38;;;0.78
17716;BMP280;50159;49.426;11.182;2023-01-26T02:57:45;98106.72;;;0.80
17716;BMP280;50159;49.426;11.182;2023-01-26T03:00:19;98099.09;;;0.78
17716;BMP280;50159;49.426;11.182;2023-01-26T03:02:46;98094.75;;;0.80
17716;BMP280;50159;49.426;11.182;2023-01-26T03:05:14;98090.47;;;0.81
17716;BMP280;50159;49.426;11.182;2023-01-26T03:07:41;98090.47;;;0.81
17716;BMP280;50159;49.426;11.182;2023-01-26T03:10:09;98088.63;;;0.84
17716;BMP280;50159;49.426;11.182;2023-01-26T03:12:37;98083.63;;;0.81
17716;BMP280;50159;49.426;11.182;2023-01-26T03:15:06;98087.84;;;0.82
17716;BMP280;50159;49.426;11.182;2023-01-26T03:17:59;98084.34;;;0.85
17716;BMP280;50159;49.426;11.182;2023-01-26T03:20:46;98082.44;;;0.91
17716;BMP280;50159;49.426;11.182;2023-01-26T03:23:31;98079.75;;;0.94
17716;BMP280;50159;49.426;11.182;2023-01-26T03:26:16;98075.53;;;0.93
17716;BMP280;50159;49.426;11.182;2023-01-26T03:29:02;98075.59;;;0.91
17716;BMP280;50159;49.426;11.182;2023-01-26T03:31:29;98085.94;;;0.89
17716;BMP280;50159;49.426;11.182;2023-01-26T03:33:55;98078.34;;;0.86
17716;BMP280;50159;49.426;11.182;2023-01-26T03:36:22;98074.94;;;0.85
17716;BMP280;50159;49.426;11.182;2023-01-26T03:38:49;98074.94;;;0.85
17716;BMP280;50159;49.426;11.182;2023-01-26T03:41:16;98069.81;;;0.85
17716;BMP280;50159;49.426;11.182;2023-01-26T03:44:01;98072.44;;;0.84
17716;BMP280;50159;49.426;11.182;2023-01-26T03:46:46;98062.09;;;0.87
17716;BMP280;50159;49.426;11.182;2023-01-26T03:49:32;98067.03;;;0.92
17716;BMP280;50159;49.426;11.182;2023-01-26T03:52:17;98062.72;;;0.93
17716;BMP280;50159;49.426;11.182;2023-01-26T03:55:03;98062.72;;;0.93
17716;BMP280;50159;49.426;11.182;2023-01-26T03:57:49;98064.50;;;0.91
17716;BMP280;50159;49.426;11.182;2023-01-26T04:00:15;98059.34;;;0.92
17716;BMP280;50159;49.426;11.182;2023-01-26T04:02:42;98062.63;;;0.96
17716;BMP280;50159;49.426;11.182;2023-01-26T04:05:27;98058.19;;;1.01
17716;BMP280;50159;49.426;11.182;2023-01-26T04:08:13;98056.53;;;0.98
17716;BMP280;50159;49.426;11.182;2023-01-26T04:10:50;98056.72;;;0.94
17716;BMP280;50159;49.426;11.182;2023-01-26T04:13:19;98060.13;;;0.94
17716;BMP280;50159;49.426;11.182;2023-01-26T04:16:05;98060.00;;;0.97
17716;BMP280;50159;49.426;11.182;2023-01-26T04:18:51;98062.50;;;0.99
17716;BMP280;50159;49.426;11.182;2023-01-26T04:21:36;98059.84;;;1.02
17716;BMP280;50159;49.426;11.182;2023-01-26T04:24:05;98060.63;;;1.04
17716;BMP280;50159;49.426;11.182;2023-01-26T04:26:43;98061.34;;;1.07
17716;BMP280;50159;49.426;11.182;2023-01-26T04:29:13;98070.75;;;1.07
17716;BMP280;50159;49.426;11.182;2023-01-26T04:31:41;98067.53;;;1.02
17716;BMP280;50159;49.426;11.182;2023-01-26T04:34:13;98063.31;;;1.01
17716;BMP280;50159;49.426;11.182;2023-01-26T04:36:41;98065.19;;;0.96
17716;BMP280;50159;49.426;11.182;2023-01-26T04:39:09;98060.13;;;0.94
17716;BMP280;50159;49.426;11.182;2023-01-26T04:41:36;98056.84;;;0.91
17716;BMP280;50159;49.426;11.182;2023-01-26T04:44:02;98051.81;;;0.88
17716;BMP280;50159;49.426;11.182;2023-01-26T04:46:29;98052.59;;;0.90
17716;BMP280;50159;49.426;11.182;2023-01-26T04:48:56;98056.06;;;0.89
17716;BMP280;50159;49.426;11.182;2023-01-26T04:51:23;98061.06;;;0.92
17716;BMP280;50159;49.426;11.182;2023-01-26T04:53:50;98056.72;;;0.94
17716;BMP280;50159;49.426;11.182;2023-01-26T04:56:25;98057.38;;;0.99
17716;BMP280;50159;49.426;11.182;2023-01-26T04:58:53;98060.75;;;1.01
17716;BMP280;50159;49.426;11.182;2023-01-26T05:01:20;98053.94;;;1.00
17716;BMP280;50159;49.426;11.182;2023-01-26T05:03:47;98053.09;;;0.99
17716;BMP280;50159;49.426;11.182;2023-01-26T05:06:14;98056.47;;;1.01
17716;BMP280;50159;49.426;11.182;2023-01-26T05:08:41;98050.69;;;0.95
17716;BMP280;50159;49.426;11.182;2023-01-26T05:11:08;98054.16;;;0.94
17716;BMP280;50159;49.426;11.182;2023-01-26T05:13:35;98048.44;;;0.86
17716;BMP280;50159;49.426;11.182;2023-01-26T05:16:03;98051.13;;;0.83
17716;BMP280;50159;49.426;11.182;2023-01-26T05:18:30;98050.28;;;0.83
17716;BMP280;50159;49.426;11.182;2023-01-26T05:20:57;98050.41;;;0.80
17716;BMP280;50159;49.426;11.182;2023-01-26T05:23:24;98048.78;;;0.77
17716;BMP280;50159;49.426;11.182;2023-01-26T05:25:51;98054.69;;;0.79
17716;BMP280;50159;49.426;11.182;2023-01-26T05:28:18;98061.38;;;0.83
17716;BMP280;50159;49.426;11.182;2023-01-26T05:30:46;98056.25;;;0.83
17716;BMP280;50159;49.426;11.182;2023-01-26T05:33:13;98058.03;;;0.81
17716;BMP280;50159;49.426;11.182;2023-01-26T05:35:41;98054.81;;;0.76
17716;BMP280;50159;49.426;11.182;2023-01-26T05:38:08;98061.66;;;0.74
17716;BMP280;50159;49.426;11.182;2023-01-26T05:40:35;98054.88;;;0.73
17716;BMP280;50159;49.426;11.182;2023-01-26T05:43:02;98056.56;;;0.74
17716;BMP280;50159;49.426;11.182;2023-01-26T05:45:29;98050.56;;;0.75
17716;BMP280;50159;49.426;11.182;2023-01-26T05:47:56;98059.81;;;0.79
17716;BMP280;50159;49.426;11.182;2023-01-26T05:50:22;98056.13;;;0.86
17716;BMP280;50159;49.426;11.182;2023-01-26T05:52:49;98062.78;;;0.91
17716;BMP280;50159;49.426;11.182;2023-01-26T05:55:16;98060.16;;;0.93
17716;BMP280;50159;49.426;11.182;2023-01-26T05:57:43;98058.38;;;0.95
17716;BMP280;50159;49.426;11.182;2023-01-26T06:00:12;98062.72;;;0.93
17716;BMP280;50159;49.426;11.182;2023-01-26T06:02:40;98056.00;;;0.90
17716;BMP280;50159;49.426;11.182;2023-01-26T06:05:07;98055.09;;;0.91
17716;BMP280;50159;49.426;11.182;2023-01-26T06:07:34;98058.50;;;0.92
17716;BMP280;50159;49.426;11.182;2023-01-26T06:10:01;98056.78;;;0.92
17716;BMP280;50159;49.426;11.182;2023-01-26T06:12:28;98060.13;;;0.94
17716;BMP280;50159;49.426;11.182;2023-01-26T06:15:01;98055.72;;;0.98
17716;BMP280;50159;49.426;11.182;2023-01-26T06:17:28;98062.50;;;0.99
17716;BMP280;50159;49.426;11.182;2023-01-26T06:19:55;98059.16;;;0.97
17716;BMP280;50159;49.426;11.182;2023-01-26T06:22:22;98059.09;;;0.98
17716;BMP280;50159;49.426;11.182;2023-01-26T06:24:48;98050.94;;;0.89
17716;BMP280;50159;49.426;11.182;2023-01-26T06:27:17;98049.47;;;0.82
17716;BMP280;50159;49.426;11.182;2023-01-26T06:29:44;98044.34;;;0.82
17716;BMP280;50159;49.426;11.182;2023-01-26T06:32:13;98048.44;;;0.86
17716;BMP280;50159;49.426;11.182;2023-01-26T06:34:40;98057.72;;;0.90
17716;BMP280;50159;49.426;11.182;2023-01-26T06:37:07;98055.88;;;0.93
17716;BMP280;50159;49.426;11.182;2023-01-26T06:39:34;98062.63;;;0.96
17716;BMP280;50159;49.426;11.182;2023-01-26T06:42:02;98050.81;;;0.92
17716;BMP280;50159;49.426;11.182;2023-01-26T06:44:28;98049.09;;;0.92
17716;BMP280;50159;49.426;11.182;2023-01-26T06:46:55;98055.72;;;0.98
17716;BMP280;50159;49.426;11.182;2023-01-26T06:49:22;98051.34;;;1.01
17716;BMP280;50159;49.426;11.182;2023-01-26T06:52:02;98055.63;;;1.01
17716;BMP280;50159;49.426;11.182;2023-01-26T06:54:29;98055.09;;;0.91
17716;BMP280;50159;49.426;11.182;2023-01-26T06:56:56;98056.94;;;0.88
17716;BMP280;50159;49.426;11.182;2023-01-26T06:59:23;98054.59;;;0.82
17716;BMP280;50159;49.426;11.182;2023-01-26T07:01:49;98054.69;;;0.79
17716;BMP280;50159;49.426;11.182;2023-01-26T07:04:16;98049.47;;;0.82
17716;BMP280;50159;49.426;11.182;2023-01-26T07:06:43;98044.16;;;0.88
17716;BMP280;50159;49.426;11.182;2023-01-26T07:09:10;98040.59;;;0.92
17716;BMP280;50159;49.426;11.182;2023-01-26T07:11:37;98049.94;;;0.93
17716;BMP280;50159;49.426;11.182;2023-01-26T07:14:04;98056.72;;;0.94
17716;BMP280;50159;49.426;11.182;2023-01-26T07:16:31;98053.22;;;0.96
17716;BMP280;50159;49.426;11.182;2023-01-26T07:18:59;98054.75;;;1.02
17716;BMP280;50159;49.426;11.182;2023-01-26T07:21:26;98056.34;;;1.04
17716;BMP280;50159;49.426;11.182;2023-01-26T07:23:54;98057.97;;;1.07
17716;BMP280;50159;49.426;11.182;2023-01-26T07:26:21;98051.88;;;1.09
17716;BMP280;50159;49.426;11.182;2023-01-26T07:28:48;98054.44;;;1.09
17716;BMP280;50159;49.426;11.182;2023-01-26T07:31:15;98050.94;;;1.11
17716;BMP280;50159;49.426;11.182;2023-01-26T07:33:42;98046.63;;;1.13
17716;BMP280;50159;49.426;11.182;2023-01-26T07:36:09;98047.44;;;1.14
17716;BMP280;50159;49.426;11.182;2023-01-26T07:38:37;98056.88;;;1.13
17716;BMP280;50159;49.426;11.182;2023-01-26T07:41:08;98050.03;;;1.14
17716;BMP280;50159;49.426;11.182;2023-01-26T07:43:36;98044.91;;;1.14
17716;BMP280;50159;49.426;11.182;2023-01-26T07:46:06;98046.63;;;1.13
17716;BMP280;50159;49.426;11.182;2023-01-26T07:48:33;98044.91;;;1.12
17716;BMP280;50159;49.426;11.182;2023-01-26T07:51:02;98047.53;;;1.11
17716;BMP280;50159;49.426;11.182;2023-01-26T07:53:30;98046.75;;;1.09
17716;BMP280;50159;49.426;11.182;2023-01-26T07:56:12;98038.47;;;1.03
17716;BMP280;50159;49.426;11.182;2023-01-26T07:58:39;98036.81;;;1.02
17716;BMP280;50159;49.426;11.182;2023-01-26T08:01:12;98044.44;;;1.03
17716;BMP280;50159;49.426;11.182;2023-01-26T08:03:40;98039.31;;;1.03
17716;BMP280;50159;49.426;11.182;2023-01-26T08:06:08;98048.81;;;1.00
17716;BMP280;50159;49.426;11.182;2023-01-26T08:08:38;98053.31;;;0.93
17716;BMP280;50159;49.426;11.182;2023-01-26T08:11:08;98047.25;;;0.96
17716;BMP280;50159;49.426;11.182;2023-01-26T08:13:35;98041.09;;;1.01
17716;BMP280;50159;49.426;11.182;2023-01-26T08:16:05;98047.72;;;1.07
17716;BMP280;50159;49.426;11.182;2023-01-26T08:18:34;98039.91;;;1.10
17716;BMP280;50159;49.426;11.182;2023-01-26T08:21:01;98050.91;;;1.13
17716;BMP280;50159;49.426;11.182;2023-01-26T08:23:28;98050.78;;;1.16
17716;BMP280;50159;49.426;11.182;2023-01-26T08:26:04;98044.72;;;1.18
17716;BMP280;50159;49.426;11.182;2023-01-26T08:28:32;98042.09;;;1.20
17716;BMP280;50159;49.426;11.182;2023-01-26T08:31:09;98043.88;;;1.18
17716;BMP280;50159;49.426;11.182;2023-01-26T08:33:39;98045.72;;;1.14
17716;BMP280;50159;49.426;11.182;2023-01-26T08:36:10;98043.25;;;1.11
17716;BMP280;50159;49.426;11.182;2023-01-26T08:38:37;98038.97;;;1.12
17716;BMP280;50159;49.426;11.182;2023-01-26T08:41:04;98034.66;;;1.14
17716;BMP280;50159;49.426;11.182;2023-01-26T08:43:32;98044.72;;;1.18
17716;BMP280;50159;49.426;11.182;2023-01-26T08:45:59;98046.31;;;1.21
17716;BMP280;50159;49.426;11.182;2023-01-26T08:48:26;98038.53;;;1.24
17716;BMP280;50159;49.426;11.182;2023-01-26T08:50:57;98048.69;;;1.27
17716;BMP280;50159;49.426;11.182;2023-01-26T08:53:25;98045.22;;;1.28
17716;BMP280;50159;49.426;11.182;2023-01-26T08:55:52;98050.28;;;1.29
17716;BMP280;50159;49.426;11.182;2023-01-26T08:58:18;98046.72;;;1.33
17716;BMP280;50159;49.426;11.182;2023-01-26T09:00:46;98048.38;;;1.34
17716;BMP280;50159;49.426;11.182;2023-01-26T09:03:13;98037.19;;;1.36
17716;BMP280;50159;49.426;11.182;2023-01-26T09:05:40;98041.38;;;1.39
17716;BMP280;50159;49.426;11.182;2023-01-26T09:08:08;98038.75;;;1.40
17716;BMP280;50159;49.426;11.182;2023-01-26T09:10:37;98043.78;;;1.43
17716;BMP280;50159;49.426;11.182;2023-01-26T09:13:08;98036.78;;;1.47
17716;BMP280;50159;49.426;11.182;2023-01-26T09:15:37;98042.53;;;1.53
17716;BMP280;50159;49.426;11.182;2023-01-26T09:18:04;98046.66;;;1.57
17716;BMP280;50159;49.426;11.182;2023-01-26T09:20:31;98044.03;;;1.58
17716;BMP280;50159;49.426;11.182;2023-01-26T09:22:57;98044.78;;;1.60
17716;BMP280;50159;49.426;11.182;2023-01-26T09:25:24;98051.59;;;1.61
17716;BMP280;50159;49.426;11.182;2023-01-26T09:27:51;98056.69;;;1.63
17716;BMP280;50159;49.426;11.182;2023-01-26T09:30:18;98058.38;;;1.62
17716;BMP280;50159;49.426;11.182;2023-01-26T09:32:44;98045.75;;;1.58
17716;BMP280;50159;49.426;11.182;2023-01-26T09:35:11;98049.28;;;1.56
17716;BMP280;50159;49.426;11.182;2023-01-26T09:37:42;98048.50;;;1.54
17716;BMP280;50159;49.426;11.182;2023-01-26T09:40:19;98051.00;;;1.55
17716;BMP280;50159;49.426;11.182;2023-01-26T09:49:34;98052.22;;;1.68
17716;BMP280;50159;49.426;11.182;2023-01-26T09:52:12;98050.41;;;1.70
17716;BMP280;50159;49.426;11.182;2023-01-26T09:54:49;98052.03;;;1.72
17716;BMP280;50159;49.426;11.182;2023-01-26T10:02:59;98047.03;;;1.69
17716;BMP280;50159;49.426;11.182;2023-01-26T10:08:23;98054.84;;;1.66
17716;BMP280;50159;49.426;11.182;2023-01-26T10:11:00;98043.00;;;1.62
17716;BMP280;50159;49.426;11.182;2023-01-26T10:13:28;98051.59;;;1.61
17716;BMP280;50159;49.426;11.182;2023-01-26T10:16:08;98056.72;;;1.61
17716;BMP280;50159;49.426;11.182;2023-01-26T10:21:22;98056.72;;;1.61
17716;BMP280;50159;49.426;11.182;2023-01-26T10:23:51;98042.22;;;1.60
17716;BMP280;50159;49.426;11.182;2023-01-26T10:26:22;98046.59;;;1.58
17716;BMP280;50159;49.426;11.182;2023-01-26T10:28:52;98044.91;;;1.57
17716;BMP280;50159;49.426;11.182;2023-01-26T10:31:30;98036.34;;;1.58
17716;BMP280;50159;49.426;11.182;2023-01-26T10:34:12;98039.66;;;1.60
17716;BMP280;50159;49.426;11.182;2023-01-26T10:36:43;98045.56;;;1.62
17716;BMP280;50159;49.426;11.182;2023-01-26T10:39:14;98038.75;;;1.63
17716;BMP280;50159;49.426;11.182;2023-01-26T10:41:58;98046.31;;;1.66
17716;BMP280;50159;49.426;11.182;2023-01-26T10:44:33;98036.84;;;1.68
17716;BMP280;50159;49.426;11.182;2023-01-26T10:49:40;98031.66;;;1.69
17716;BMP280;50159;49.426;11.182;2023-01-26T10:52:21;98030.75;;;1.70
17716;BMP280;50159;49.426;11.182;2023-01-26T10:55:09;98026.44;;;1.71
17716;BMP280;50159;49.426;11.182;2023-01-26T10:57:39;98025.75;;;1.67
17716;BMP280;50159;49.426;11.182;2023-01-26T11:00:23;98015.50;;;1.67
17716;BMP280;50159;49.426;11.182;2023-01-26T11:03:19;98011.13;;;1.69
17716;BMP280;50159;49.426;11.182;2023-01-26T11:06:06;98019.72;;;1.68
17716;BMP280;50159;49.426;11.182;2023-01-26T11:08:37;98013.75;;;1.68
17716;BMP280;50159;49.426;11.182;2023-01-26T11:11:06;98013.81;;;1.66
17716;BMP280;50159;49.426;11.182;2023-01-26T11:13:37;98018.94;;;1.66
17716;BMP280;50159;49.426;11.182;2023-01-26T11:16:22;98015.69;;;1.63
17716;BMP280;50159;49.426;11.182;2023-01-26T11:22:08;98004.56;;;1.62
17716;BMP280;50159;49.426;11.182;2023-01-26T11:27:38;97995.44;;;1.56
17716;BMP280;50159;49.426;11.182;2023-01-26T11:33:38;97994.88;;;1.48
17716;BMP280;50159;49.426;11.182;2023-01-26T11:36:40;97985.66;;;1.44
17716;BMP280;50159;49.426;11.182;2023-01-26T11:43:02;97994.97;;;1.46
17716;BMP280;50159;49.426;11.182;2023-01-26T11:46:06;97982.22;;;1.45
17716;BMP280;50159;49.426;11.182;2023-01-26T11:54:59;97964.78;;;1.32
17716;BMP280;50159;49.426;11.182;2023-01-26T11:58:02;97964.91;;;1.29
17716;BMP280;50159;49.426;11.182;2023-01-26T12:00:58;97967.53;;;1.27
17716;BMP280;50159;49.426;11.182;2023-01-26T12:03:49;97972.66;;;1.27
17716;BMP280;50159;49.426;11.182;2023-01-26T12:06:29;97972.59;;;1.29
17716;BMP280;50159;49.426;11.182;2023-01-26T12:09:00;97968.25;;;1.31
17716;BMP280;50159;49.426;11.182;2023-01-26T12:11:48;97968.06;;;1.35
17716;BMP280;50159;49.426;11.182;2023-01-26T12:14:41;97963.63;;;1.40
17716;BMP280;50159;49.426;11.182;2023-01-26T12:17:43;97953.31;;;1.41
17716;BMP280;50159;49.426;11.182;2023-01-26T12:20:45;97958.50;;;1.40
17716;BMP280;50159;49.426;11.182;2023-01-26T12:23:32;97946.56;;;1.39
17716;BMP280;50159;49.426;11.182;2023-01-26T12:26:14;97958.50;;;1.40
17716;BMP280;50159;49.426;11.182;2023-01-26T12:29:22;97947.47;;;1.38
17716;BMP280;50159;49.426;11.182;2023-01-26T12:32:11;97941.53;;;1.36
17716;BMP280;50159;49.426;11.182;2023-01-26T12:34:39;97947.69;;;1.32
17716;BMP280;50159;49.426;11.182;2023-01-26T12:40:35;97930.78;;;1.28
17716;BMP280;50159;49.426;11.182;2023-01-26T12:43:23;97923.22;;;1.25
17716;BMP280;50159;49.426;11.182;2023-01-26T12:46:03;97917.97;;;1.28
17716;BMP280;50159;49.426;11.182;2023-01-26T12:48:42;97922.25;;;1.28
17716;BMP280;50159;49.426;11.182;2023-01-26T12:51:29;97911.88;;;1.31
17716;BMP280;50159;49.426;11.182;2023-01-26T12:54:15;97913.50;;;1.33
17716;BMP280;50159;49.426;11.182;2023-01-26T12:56:52;97916.00;;;1.34
17716;BMP280;50159;49.426;11.182;2023-01-26T12:59:39;97916.66;;;1.39
17716;BMP280;50159;49.426;11.182;2023-01-26T13:02:30;97912.38;;;1.40
17716;BMP280;50159;49.426;11.182;2023-01-26T13:05:01;97909.91;;;1.37
17716;BMP280;50159;49.426;11.182;2023-01-26T13:07:38;97909.91;;;1.37
17716;BMP280;50159;49.426;11.182;2023-01-26T13:10:27;97909.91;;;1.37
17716;BMP280;50159;49.426;11.182;2023-01-26T13:13:33;97909.06;;;1.36
17716;BMP280;50159;49.426;11.182;2023-01-26T13:16:29;97916.00;;;1.34
17716;BMP280;50159;49.426;11.182;2023-01-26T13:19:00;97915.28;;;1.31
17716;BMP280;50159;49.426;11.182;2023-01-26T13:29:31;97911.19;;;1.27
17716;BMP280;50159;49.426;11.182;2023-01-26T13:34:59;97917.97;;;1.28
17716;BMP280;50159;49.426;11.182;2023-01-26T13:38:03;97917.06;;;1.29
17716;BMP280;50159;49.426;11.182;2023-01-26T13:40:36;97916.47;;;1.23
17716;BMP280;50159;49.426;11.182;2023-01-26T13:43:23;97914.78;;;1.22
17716;BMP280;50159;49.426;11.182;2023-01-26T13:46:33;97911.41;;;1.21
17716;BMP280;50159;49.426;11.182;2023-01-26T13:49:00;97914.78;;;1.22
17716;BMP280;50159;49.426;11.182;2023-01-26T13:51:33;97911.41;;;1.21
17716;BMP280;50159;49.426;11.182;2023-01-26T13:54:11;97905.50;;;1.19
17716;BMP280;50159;49.426;11.182;2023-01-26T13:56:41;97903.06;;;1.16
17716;BMP280;50159;49.426;11.182;2023-01-26T13:59:17;97904.72;;;1.17
17716;BMP280;50159;49.426;11.182;2023-01-26T14:01:54;97899.72;;;1.14
17716;BMP280;50159;49.426;11.182;2023-01-26T14:04:30;97898.06;;;1.13
17716;BMP280;50159;49.426;11.182;2023-01-26T14:07:12;97892.94;;;1.13
17716;BMP280;50159;49.426;11.182;2023-01-26T14:09:49;97905.69;;;1.15
17716;BMP280;50159;49.426;11.182;2023-01-26T14:12:21;97903.06;;;1.16
17716;BMP280;50159;49.426;11.182;2023-01-26T14:14:55;97906.53;;;1.15
17716;BMP280;50159;49.426;11.182;2023-01-26T14:17:35;97908.19;;;1.16
17716;BMP280;50159;49.426;11.182;2023-01-26T14:20:29;97903.91;;;1.17
17716;BMP280;50159;49.426;11.182;2023-01-26T14:23:14;97908.91;;;1.20
17716;BMP280;50159;49.426;11.182;2023-01-26T14:25:48;97913.06;;;1.22
17716;BMP280;50159;49.426;11.182;2023-01-26T14:28:26;97909.78;;;1.19
17716;BMP280;50159;49.426;11.182;2023-01-26T14:31:07;97923.56;;;1.16
17716;BMP280;50159;49.426;11.182;2023-01-26T14:33:36;97919.47;;;1.11
17716;BMP280;50159;49.426;11.182;2023-01-26T14:36:04;97932.59;;;1.04
17716;BMP280;50159;49.426;11.182;2023-01-26T14:38:43;97930.97;;;1.01
17716;BMP280;50159;49.426;11.182;2023-01-26T14:41:31;97936.81;;;1.05
17716;BMP280;50159;49.426;11.182;2023-01-26T14:43:59;97935.94;;;1.06
17716;BMP280;50159;49.426;11.182;2023-01-26T14:49:21;97934.97;;;1.08
17716;BMP280;50159;49.426;11.182;2023-01-26T14:51:56;97940.94;;;1.09
17716;BMP280;50159;49.426;11.182;2023-01-26T14:54:33;97935.94;;;1.06
17716;BMP280;50159;49.426;11.182;2023-01-26T14:57:06;97935.94;;;1.06
17716;BMP280;50159;49.426;11.182;2023-01-26T14:59:39;97948.72;;;1.06
17716;BMP280;50159;49.426;11.182;2023-01-26T15:02:13;97941.03;;;1.06
17716;BMP280;50159;49.426;11.182;2023-01-26T15:04:51;97946.03;;;1.09
17716;BMP280;50159;49.426;11.182;2023-01-26T15:10:23;97955.63;;;1.04
17716;BMP280;50159;49.426;11.182;2023-01-26T15:15:44;97933.56;;;1.00
17716;BMP280;50159;49.426;11.182;2023-01-26T15:18:21;97943.81;;;1.00
17716;BMP280;50159;49.426;11.182;2023-01-26T15:20:55;97933.69;;;0.97
17716;BMP280;50159;49.426;11.182;2023-01-26T15:23:48;97939.00;;;0.92
17716;BMP280;50159;49.426;11.182;2023-01-26T15:26:28;97941.63;;;0.91
17716;BMP280;50159;49.426;11.182;2023-01-26T15:28:58;97937.38;;;0.90
17716;BMP280;50159;49.426;11.182;2023-01-26T15:31:32;97941.63;;;0.91
17716;BMP280;50159;49.426;11.182;2023-01-26T15:34:00;97942.44;;;0.91
17716;BMP280;50159;49.426;11.182;2023-01-26T15:36:49;97939.84;;;0.93
17716;BMP280;50159;49.426;11.182;2023-01-26T15:39:18;97942.56;;;0.89
17716;BMP280;50159;49.426;11.182;2023-01-26T15:42:11;97940.00;;;0.89
17716;BMP280;50159;49.426;11.182;2023-01-26T15:44:40;97934.84;;;0.90
17716;BMP280;50159;49.426;11.182;2023-01-26T15:47:09;97948.56;;;0.88
17716;BMP280;50159;49.426;11.182;2023-01-26T15:49:38;97946.94;;;0.85
17716;BMP280;50159;49.426;11.182;2023-01-26T15:52:15;97952.91;;;0.86
17716;BMP280;50159;49.426;11.182;2023-01-26T15:54:42;97946.94;;;0.85